createdAt,value
2019-03-24T00:01:59.064Z,97074.89
2019-03-24T00:04:25.566Z,97075.70
2019-03-24T00:06:51.757Z,97070.20
2019-03-24T00:09:17.931Z,97073.83
2019-03-24T00:11:44.187Z,97067.56
2019-03-24T00:14:10.277Z,97064.92
2019-03-24T00:16:36.557Z,97063.02
2019-03-24T00:19:03.502Z,97058.30
2019-03-24T00:21:30.113Z,97055.34
2019-03-24T00:23:56.317Z,97054.88
2019-03-24T00:26:23.516Z,97051.31
2019-03-24T00:28:49.863Z,97051.09
2019-03-24T00:31:15.958Z,97051.95
2019-03-24T00:33:42.202Z,97041.39
2019-03-24T00:36:08.293Z,97045.34
2019-03-24T00:38:34.521Z,97047.27
2019-03-24T00:41:00.638Z,97039.95
2019-03-24T00:43:28.001Z,97038.20
2019-03-24T00:45:54.110Z,97029.44
2019-03-24T00:48:20.568Z,97035.91
2019-03-24T00:50:46.721Z,97037.02
2019-03-24T00:53:12.960Z,97033.66
2019-03-24T00:55:39.078Z,97038.34
2019-03-24T00:58:05.489Z,97029.92
2019-03-24T01:00:43.685Z,97032.67
2019-03-24T01:03:09.926Z,97032.88
2019-03-24T01:05:36.117Z,97024.49
2019-03-24T01:08:02.434Z,97019.55
2019-03-24T01:10:28.564Z,97029.00
2019-03-24T01:12:55.088Z,97015.80
2019-03-24T01:15:21.216Z,97020.74
2019-03-24T01:17:47.453Z,97016.65
2019-03-24T01:20:13.763Z,97016.65
2019-03-24T01:22:39.960Z,97011.03
2019-03-24T01:25:06.436Z,97013.30
2019-03-24T01:27:32.728Z,97018.10
2019-03-24T01:29:59.005Z,97013.94
2019-03-24T01:32:25.379Z,97016.70
2019-03-24T01:34:51.530Z,97005.91
2019-03-24T01:37:17.859Z,97004.23
2019-03-24T01:39:44.062Z,97006.03
2019-03-24T01:42:10.332Z,97010.12
2019-03-24T01:44:36.491Z,97010.97
2019-03-24T01:47:02.968Z,97003.05
2019-03-24T01:49:29.420Z,96995.98
2019-03-24T01:51:55.587Z,96993.68
2019-03-24T01:54:21.969Z,96996.80
2019-03-24T01:56:48.120Z,96996.80
2019-03-24T01:59:15.312Z,96998.95
2019-03-24T02:01:41.489Z,96998.36
2019-03-24T02:04:07.740Z,96999.67
2019-03-24T02:06:34.957Z,96994.28
2019-03-24T02:09:01.104Z,96992.28
2019-03-24T02:11:27.475Z,96990.37
2019-03-24T02:13:53.628Z,96982.20
2019-03-24T02:16:19.797Z,96986.62
2019-03-24T02:18:45.974Z,96984.84
2019-03-24T02:21:12.361Z,96981.72
2019-03-24T02:23:38.586Z,96977.77
2019-03-24T02:26:04.697Z,96977.63
2019-03-24T02:28:30.951Z,96973.80
2019-03-24T02:30:57.264Z,96984.36
2019-03-24T02:33:23.578Z,96978.23
2019-03-24T02:35:49.678Z,96977.39
2019-03-24T02:38:15.891Z,96976.07
2019-03-24T02:40:42.003Z,96980.03
2019-03-24T02:43:08.189Z,96980.41
2019-03-24T02:45:34.412Z,96973.80
2019-03-24T02:48:00.589Z,96978.45
2019-03-24T02:50:26.739Z,96974.63
2019-03-24T02:52:53.150Z,96972.36
2019-03-24T02:55:19.259Z,96966.23
2019-03-24T02:57:45.456Z,96971.16
2019-03-24T03:00:11.914Z,96969.84
2019-03-24T03:02:38.183Z,96965.89
2019-03-24T03:05:06.536Z,96968.16
2019-03-24T03:07:32.853Z,96961.08
2019-03-24T03:09:58.968Z,96965.89
2019-03-24T03:12:25.286Z,96965.05
2019-03-24T03:14:51.508Z,96955.94
2019-03-24T03:17:18.732Z,96958.23
2019-03-24T03:19:44.857Z,96952.58
2019-03-24T03:22:11.072Z,96951.52
2019-03-24T03:24:37.180Z,96950.84
2019-03-24T03:27:03.705Z,96948.67
2019-03-24T03:29:29.886Z,96947.02
2019-03-24T03:31:56.099Z,96953.23
2019-03-24T03:34:22.224Z,96946.77
2019-03-24T03:36:48.445Z,96949.91
2019-03-24T03:39:14.622Z,96944.77
2019-03-24T03:41:41.027Z,96936.48
2019-03-24T03:44:07.361Z,96938.78
2019-03-24T03:46:33.634Z,96938.44
2019-03-24T03:48:59.779Z,96939.38
2019-03-24T03:51:26.051Z,96938.19
2019-03-24T03:53:52.332Z,96933.05
2019-03-24T03:56:18.584Z,96933.69
2019-03-24T03:58:44.860Z,96924.92
2019-03-24T04:01:11.227Z,96931.05
2019-03-24T04:03:37.506Z,96929.86
2019-03-24T04:06:03.946Z,96931.65
2019-03-24T04:08:30.210Z,96924.71
2019-03-24T04:10:56.453Z,96922.34
2019-03-24T04:13:22.756Z,96923.46
2019-03-24T04:15:49.209Z,96917.25
2019-03-24T04:18:15.495Z,96918.58
2019-03-24T04:20:41.853Z,96911.39
2019-03-24T04:23:08.047Z,96918.59
2019-03-24T04:25:34.205Z,96911.02
2019-03-24T04:28:01.531Z,96908.25
2019-03-24T04:30:27.757Z,96905.14
2019-03-24T04:32:53.982Z,96907.65
2019-03-24T04:35:20.145Z,96911.51
2019-03-24T04:37:46.411Z,96910.06
2019-03-24T04:40:12.624Z,96906.95
2019-03-24T04:42:38.846Z,96906.95
2019-03-24T04:45:05.511Z,96899.37
2019-03-24T04:47:31.794Z,96898.06
2019-03-24T04:49:58.003Z,96896.73
2019-03-24T04:52:24.234Z,96902.86
2019-03-24T04:54:50.411Z,96898.91
2019-03-24T04:57:16.602Z,96901.55
2019-03-24T04:59:42.882Z,96901.67
2019-03-24T05:02:09.103Z,96900.22
2019-03-24T05:04:35.290Z,96897.08
2019-03-24T05:07:01.945Z,96899.72
2019-03-24T05:09:28.782Z,96892.78
2019-03-24T05:11:55.053Z,96892.91
2019-03-24T05:14:21.224Z,96890.75
2019-03-24T05:16:47.416Z,96890.75
2019-03-24T05:19:13.533Z,96892.30
2019-03-24T05:21:39.754Z,96890.30
2019-03-24T05:24:05.991Z,96891.74
2019-03-24T05:26:32.210Z,96889.58
2019-03-24T05:28:58.311Z,96890.90
2019-03-24T05:31:24.559Z,96893.67
2019-03-24T05:33:50.680Z,96886.23
2019-03-24T05:36:16.892Z,96891.87
2019-03-24T05:38:43.115Z,96885.75
2019-03-24T05:41:09.327Z,96887.33
2019-03-24T05:43:35.425Z,96883.16
2019-03-24T05:46:01.657Z,96884.83
2019-03-24T05:48:27.762Z,96881.61
2019-03-24T05:50:53.973Z,96880.41
2019-03-24T05:53:20.149Z,96883.42
2019-03-24T05:55:46.374Z,96877.44
2019-03-24T05:58:12.540Z,96880.55
2019-03-24T06:00:38.717Z,96875.77
2019-03-24T06:03:04.921Z,96872.77
2019-03-24T06:05:31.187Z,96869.66
2019-03-24T06:07:57.469Z,96868.92
2019-03-24T06:10:23.696Z,96857.41
2019-03-24T06:12:49.810Z,96868.29
2019-03-24T06:15:16.025Z,96871.04
2019-03-24T06:17:47.862Z,96861.55
2019-03-24T06:20:10.441Z,96859.25
2019-03-24T06:22:36.540Z,96865.18
2019-03-24T06:25:04.974Z,96862.48
2019-03-24T06:27:31.136Z,96863.80
2019-03-24T06:29:57.403Z,96858.13
2019-03-24T06:32:23.632Z,96868.48
2019-03-24T06:34:49.808Z,96868.92
2019-03-24T06:37:16.074Z,96864.77
2019-03-24T06:39:42.355Z,96865.56
2019-03-24T06:42:08.595Z,96862.87
2019-03-24T06:44:34.765Z,96863.45
2019-03-24T06:47:00.991Z,96860.88
2019-03-24T06:49:27.109Z,96864.58
2019-03-24T06:51:53.491Z,96862.17
2019-03-24T06:54:19.671Z,96857.44
2019-03-24T06:56:45.893Z,96867.25
2019-03-24T06:59:12.057Z,96864.02
2019-03-24T07:01:38.349Z,96865.33
2019-03-24T07:04:04.686Z,96866.65
2019-03-24T07:06:30.938Z,96860.05
2019-03-24T07:08:57.260Z,96864.34
2019-03-24T07:11:23.361Z,96865.27
2019-03-24T07:13:49.567Z,96864.80
2019-03-24T07:16:15.785Z,96863.67
2019-03-24T07:18:41.993Z,96862.56
2019-03-24T07:21:08.216Z,96863.67
2019-03-24T07:23:34.424Z,96860.91
2019-03-24T07:26:00.815Z,96864.93
2019-03-24T07:28:27.032Z,96856.06
2019-03-24T07:30:53.363Z,96854.81
2019-03-24T07:33:19.879Z,96857.52
2019-03-24T07:35:46.195Z,96859.75
2019-03-24T07:38:12.305Z,96846.61
2019-03-24T07:40:38.510Z,96852.47
2019-03-24T07:43:04.621Z,96850.53
2019-03-24T07:45:31.042Z,96855.17
2019-03-24T07:47:57.384Z,96855.88
2019-03-24T07:50:23.652Z,96851.64
2019-03-24T07:52:50.022Z,96842.46
2019-03-24T07:55:16.408Z,96844.83
2019-03-24T07:57:42.792Z,96845.53
2019-03-24T08:00:10.641Z,96844.27
2019-03-24T08:02:36.825Z,96846.02
2019-03-24T08:05:04.509Z,96838.52
2019-03-24T08:07:30.808Z,96843.81
2019-03-24T08:09:57.174Z,96831.36
2019-03-24T08:12:23.436Z,96831.14
2019-03-24T08:14:49.717Z,96831.56
2019-03-24T08:17:15.990Z,96828.49
2019-03-24T08:19:42.115Z,96830.72
2019-03-24T08:22:08.333Z,96819.62
2019-03-24T08:24:34.570Z,96816.47
2019-03-24T08:27:00.800Z,96819.95
2019-03-24T08:29:26.909Z,96814.70
2019-03-24T08:31:53.127Z,96820.41
2019-03-24T08:34:19.282Z,96804.33
2019-03-24T08:36:45.531Z,96805.72
2019-03-24T08:39:11.878Z,96804.30
2019-03-24T08:41:38.879Z,96800.37
2019-03-24T08:44:05.218Z,96798.77
2019-03-24T08:46:31.345Z,96797.89
2019-03-24T08:48:57.547Z,96801.38
2019-03-24T08:51:23.712Z,96786.39
2019-03-24T08:53:49.962Z,96791.89
2019-03-24T08:56:16.295Z,96791.27
2019-03-24T08:58:42.406Z,96791.17
2019-03-24T09:01:08.606Z,96788.67
2019-03-24T09:03:34.764Z,96784.22
2019-03-24T09:06:01.175Z,96778.30
2019-03-24T09:08:27.389Z,96777.31
2019-03-24T09:10:53.690Z,96780.95
2019-03-24T09:13:19.841Z,96776.87
2019-03-24T09:15:46.099Z,96774.97
2019-03-24T09:18:12.377Z,96774.01
2019-03-24T09:20:41.872Z,96768.78
2019-03-24T09:23:06.600Z,96768.23
2019-03-24T09:25:32.875Z,96765.62
2019-03-24T09:27:59.098Z,96766.14
2019-03-24T09:30:27.269Z,96763.56
2019-03-24T09:32:55.116Z,96763.75
2019-03-24T09:35:21.867Z,96763.83
2019-03-24T09:37:48.023Z,96753.91
2019-03-24T09:40:18.732Z,96759.34
2019-03-24T09:42:45.035Z,96763.24
2019-03-24T09:45:11.361Z,96762.03
2019-03-24T09:47:37.643Z,96759.97
2019-03-24T09:50:04.736Z,96759.86
2019-03-24T09:52:30.995Z,96749.75
2019-03-24T09:54:57.226Z,96750.59
2019-03-24T09:57:23.398Z,96749.27
2019-03-24T09:59:49.614Z,96745.78
2019-03-24T10:02:15.794Z,96745.45
2019-03-24T10:04:42.066Z,96738.80
2019-03-24T10:07:08.356Z,96746.88
2019-03-24T10:09:34.570Z,96738.87
2019-03-24T10:12:00.674Z,96742.33
2019-03-24T10:14:26.895Z,96737.33
2019-03-24T10:16:53.005Z,96739.39
2019-03-24T10:19:19.219Z,96740.16
2019-03-24T10:21:45.379Z,96741.78
2019-03-24T10:24:11.769Z,96737.92
2019-03-24T10:26:37.948Z,96735.28
2019-03-24T10:29:04.126Z,96737.48
2019-03-24T10:31:30.406Z,96738.66
2019-03-24T10:33:56.587Z,96736.48
2019-03-24T10:36:22.813Z,96731.56
2019-03-24T10:38:48.960Z,96733.84
2019-03-24T10:41:15.196Z,96736.01
2019-03-24T10:43:41.350Z,96726.60
2019-03-24T10:46:07.582Z,96724.44
2019-03-24T10:48:34.066Z,96720.98
2019-03-24T10:51:00.401Z,96720.98
2019-03-24T10:53:26.500Z,96719.66
2019-03-24T10:55:52.808Z,96716.43
2019-03-24T10:58:18.930Z,96718.96
2019-03-24T11:00:45.414Z,96714.00
2019-03-24T11:03:11.835Z,96708.02
2019-03-24T11:05:39.056Z,96703.20
2019-03-24T11:08:05.446Z,96708.83
2019-03-24T11:10:31.814Z,96702.47
2019-03-24T11:12:57.953Z,96695.13
2019-03-24T11:15:24.139Z,96698.55
2019-03-24T11:17:50.278Z,96696.12
2019-03-24T11:20:16.580Z,96693.17
2019-03-24T11:22:42.743Z,96692.19
2019-03-24T11:25:09.521Z,96690.86
2019-03-24T11:27:36.085Z,96686.42
2019-03-24T11:30:03.543Z,96688.08
2019-03-24T11:32:30.115Z,96677.02
2019-03-24T11:34:56.340Z,96670.88
2019-03-24T11:37:22.467Z,96663.94
2019-03-24T11:39:48.686Z,96660.12
2019-03-24T11:42:14.801Z,96663.24
2019-03-24T11:44:41.080Z,96669.86
2019-03-24T11:47:07.294Z,96658.25
2019-03-24T11:49:33.464Z,96657.77
2019-03-24T11:51:59.677Z,96653.95
2019-03-24T11:54:25.849Z,96637.94
2019-03-24T11:56:52.058Z,96635.77
2019-03-24T11:59:18.181Z,96631.66
2019-03-24T12:01:44.519Z,96633.45
2019-03-24T12:04:10.806Z,96630.33
2019-03-24T12:06:37.098Z,96630.00
2019-03-24T12:09:04.963Z,96626.52
2019-03-24T12:11:31.426Z,96621.23
2019-03-24T12:13:57.705Z,96621.23
2019-03-24T12:16:24.078Z,96613.92
2019-03-24T12:18:50.394Z,96612.75
2019-03-24T12:21:16.740Z,96610.95
2019-03-24T12:23:42.967Z,96604.33
2019-03-24T12:26:09.199Z,96614.58
2019-03-24T12:28:35.387Z,96610.61
2019-03-24T12:31:01.735Z,96604.00
2019-03-24T12:33:27.885Z,96598.56
2019-03-24T12:35:54.052Z,96600.91
2019-03-24T12:38:20.242Z,96586.22
2019-03-24T12:40:47.205Z,96594.81
2019-03-24T12:43:19.537Z,96592.53
2019-03-24T12:45:42.155Z,96591.05
2019-03-24T12:48:08.518Z,96585.62
2019-03-24T12:50:35.850Z,96584.48
2019-03-24T12:53:02.206Z,96583.00
2019-03-24T12:55:28.340Z,96579.19
2019-03-24T12:57:54.650Z,96566.41
2019-03-24T13:00:36.044Z,96569.69
2019-03-24T13:03:02.845Z,96574.31
2019-03-24T13:05:29.068Z,96574.95
2019-03-24T13:07:58.804Z,96575.28
2019-03-24T13:10:24.996Z,96579.06
2019-03-24T13:12:51.113Z,96575.21
2019-03-24T13:15:17.323Z,96571.55
2019-03-24T13:17:43.448Z,96577.13
2019-03-24T13:20:19.777Z,96571.45
2019-03-24T13:22:38.202Z,96566.75
2019-03-24T13:25:05.530Z,96562.09
2019-03-24T13:27:31.644Z,96561.76
2019-03-24T13:29:57.865Z,96556.95
2019-03-24T13:32:23.977Z,96552.69
2019-03-24T13:34:50.179Z,96551.88
2019-03-24T13:37:16.495Z,96549.72
2019-03-24T13:39:42.693Z,96549.02
2019-03-24T13:42:08.972Z,96544.10
2019-03-24T13:44:35.224Z,96543.59
2019-03-24T13:47:01.498Z,96543.73
2019-03-24T13:49:27.705Z,96537.12
2019-03-24T13:51:53.837Z,96532.02
2019-03-24T13:54:20.147Z,96530.34
2019-03-24T13:56:46.246Z,96527.37
2019-03-24T13:59:12.505Z,96524.03
2019-03-24T14:01:38.771Z,96519.70
2019-03-24T14:04:04.974Z,96517.69
2019-03-24T14:06:31.095Z,96516.18
2019-03-24T14:08:58.314Z,96514.02
2019-03-24T14:11:24.525Z,96507.56
2019-03-24T14:13:50.736Z,96500.70
2019-03-24T14:16:17.063Z,96503.45
2019-03-24T14:18:43.428Z,96493.73
2019-03-24T14:21:09.812Z,96485.80
2019-03-24T14:23:36.176Z,96487.45
2019-03-24T14:26:02.705Z,96496.16
2019-03-24T14:28:28.911Z,96492.70
2019-03-24T14:30:55.231Z,96500.27
2019-03-24T14:33:21.526Z,96497.98
2019-03-24T14:35:47.731Z,96494.02
2019-03-24T14:38:13.844Z,96494.17
2019-03-24T14:40:40.195Z,96500.86
2019-03-24T14:43:06.623Z,96502.77
2019-03-24T14:45:32.952Z,96508.01
2019-03-24T14:48:00.467Z,96514.57
2019-03-24T14:50:26.677Z,96515.63
2019-03-24T14:52:52.825Z,96508.98
2019-03-24T14:55:19.057Z,96510.12
2019-03-24T14:57:45.176Z,96507.11
2019-03-24T15:00:11.826Z,96517.82
2019-03-24T15:02:40.767Z,96516.64
2019-03-24T15:05:06.772Z,96515.33
2019-03-24T15:07:33.041Z,96521.11
2019-03-24T15:09:59.214Z,96514.30
2019-03-24T15:12:25.352Z,96517.59
2019-03-24T15:14:51.671Z,96520.23
2019-03-24T15:17:17.838Z,96521.18
2019-03-24T15:19:44.024Z,96525.65
2019-03-24T15:22:10.223Z,96518.35
2019-03-24T15:24:36.467Z,96519.48
2019-03-24T15:27:03.894Z,96519.26
2019-03-24T15:29:31.884Z,96516.77
2019-03-24T15:31:58.028Z,96515.25
2019-03-24T15:34:24.424Z,96510.67
2019-03-24T15:36:51.455Z,96514.77
2019-03-24T15:39:18.654Z,96509.97
2019-03-24T15:41:45.064Z,96513.45
2019-03-24T15:44:11.347Z,96508.80
2019-03-24T15:46:37.586Z,96510.59
2019-03-24T15:49:03.824Z,96502.82
2019-03-24T15:51:30.169Z,96509.09
2019-03-24T15:53:56.659Z,96500.33
2019-03-24T15:56:23.213Z,96506.59
2019-03-24T15:58:49.444Z,96496.17
2019-03-24T16:01:15.709Z,96500.61
2019-03-24T16:03:41.982Z,96498.48
2019-03-24T16:06:08.309Z,96506.17
2019-03-24T16:08:34.444Z,96501.88
2019-03-24T16:11:00.732Z,96503.34
2019-03-24T16:13:27.115Z,96503.97
2019-03-24T16:15:54.586Z,96500.66
2019-03-24T16:18:20.890Z,96506.41
2019-03-24T16:20:47.194Z,96503.58
2019-03-24T16:23:13.596Z,96500.58
2019-03-24T16:25:39.886Z,96501.09
2019-03-24T16:28:06.314Z,96496.28
2019-03-24T16:30:32.439Z,96497.13
2019-03-24T16:32:58.747Z,96495.67
2019-03-24T16:35:25.093Z,96494.50
2019-03-24T16:37:51.358Z,96492.00
2019-03-24T16:40:17.470Z,96485.27
2019-03-24T16:42:43.766Z,96482.63
2019-03-24T16:45:10.158Z,96484.94
2019-03-24T16:47:36.390Z,96476.45
2019-03-24T16:50:04.902Z,96472.45
2019-03-24T16:52:31.146Z,96462.33
2019-03-24T16:54:57.339Z,96459.55
2019-03-24T16:57:24.742Z,96464.34
2019-03-24T16:59:50.915Z,96469.20
2019-03-24T17:02:17.301Z,96467.13
2019-03-24T17:04:43.484Z,96469.69
2019-03-24T17:07:09.852Z,96465.64
2019-03-24T17:09:36.032Z,96471.56
2019-03-24T17:12:04.756Z,96473.02
2019-03-24T17:14:31.040Z,96470.53
2019-03-24T17:16:58.175Z,96462.20
2019-03-24T17:19:24.432Z,96466.15
2019-03-24T17:21:50.706Z,96465.39
2019-03-24T17:24:16.952Z,96464.83
2019-03-24T17:26:43.299Z,96464.35
2019-03-24T17:29:09.569Z,96470.95
2019-03-24T17:31:38.190Z,96462.00
2019-03-24T17:34:04.562Z,96457.00
2019-03-24T17:36:30.831Z,96455.13
2019-03-24T17:38:57.052Z,96456.95
2019-03-24T17:41:23.362Z,96461.04
2019-03-24T17:43:49.629Z,96460.14
2019-03-24T17:46:16.323Z,96458.45
2019-03-24T17:48:42.534Z,96459.84
2019-03-24T17:51:08.841Z,96455.97
2019-03-24T17:53:35.524Z,96461.72
2019-03-24T17:56:02.468Z,96457.63
2019-03-24T17:58:28.721Z,96450.00
2019-03-24T18:00:56.690Z,96451.81
2019-03-24T18:03:22.853Z,96451.04
2019-03-24T18:05:50.120Z,96442.80
2019-03-24T18:08:16.271Z,96444.59
2019-03-24T18:10:42.503Z,96442.23
2019-03-24T18:13:08.662Z,96447.30
2019-03-24T18:15:35.097Z,96446.26
2019-03-24T18:18:01.255Z,96451.80
2019-03-24T18:20:31.372Z,96445.22
2019-03-24T18:22:57.579Z,96448.33
2019-03-24T18:25:23.981Z,96445.29
2019-03-24T18:27:50.150Z,96442.93
2019-03-24T18:30:16.763Z,96436.62
2019-03-24T18:32:43.202Z,96430.45
2019-03-24T18:35:09.959Z,96427.95
2019-03-24T18:37:36.408Z,96434.53
2019-03-24T18:40:05.572Z,96443.61
2019-03-24T18:42:31.694Z,96438.34
2019-03-24T18:44:58.060Z,96442.44
2019-03-24T18:47:24.238Z,96438.48
2019-03-24T18:49:50.533Z,96446.72
2019-03-24T18:52:22.649Z,96444.93
2019-03-24T18:54:44.831Z,96439.80
2019-03-24T18:57:11.157Z,96441.59
2019-03-24T18:59:37.416Z,96434.30
2019-03-24T19:02:03.824Z,96437.44
2019-03-24T19:04:30.038Z,96427.37
2019-03-24T19:06:56.600Z,96425.73
2019-03-24T19:09:22.873Z,96420.73
2019-03-24T19:11:49.141Z,96426.81
2019-03-24T19:14:17.056Z,96425.02
2019-03-24T19:16:43.179Z,96418.44
2019-03-24T19:19:09.505Z,96417.45
2019-03-24T19:21:35.919Z,96414.48
2019-03-24T19:24:02.226Z,96413.78
2019-03-24T19:26:28.431Z,96410.47
2019-03-24T19:28:54.636Z,96409.49
2019-03-24T19:31:20.882Z,96412.13
2019-03-24T19:33:47.102Z,96410.81
2019-03-24T19:36:13.420Z,96406.80
2019-03-24T19:38:40.517Z,96406.42
2019-03-24T19:41:06.772Z,96404.57
2019-03-24T19:43:33.047Z,96405.52
2019-03-24T19:45:59.309Z,96411.48
2019-03-24T19:48:26.519Z,96405.66
2019-03-24T19:50:52.706Z,96399.44
2019-03-24T19:53:18.982Z,96397.14
2019-03-24T19:55:45.315Z,96396.58
2019-03-24T19:58:11.475Z,96401.03
2019-03-24T20:00:37.681Z,96392.22
2019-03-24T20:03:04.097Z,96398.23
2019-03-24T20:05:30.309Z,96403.30
2019-03-24T20:07:56.662Z,96400.09
2019-03-24T20:10:22.976Z,96393.64
2019-03-24T20:12:49.145Z,96389.16
2019-03-24T20:15:15.690Z,96385.48
2019-03-24T20:17:42.017Z,96387.06
2019-03-24T20:20:08.813Z,96386.63
2019-03-24T20:22:35.030Z,96387.23
2019-03-24T20:25:01.127Z,96377.34
2019-03-24T20:27:27.529Z,96375.32
2019-03-24T20:29:53.651Z,96377.34
2019-03-24T20:32:19.857Z,96381.05
2019-03-24T20:34:46.160Z,96373.03
2019-03-24T20:37:12.375Z,96368.88
2019-03-24T20:39:38.518Z,96363.55
2019-03-24T20:42:04.904Z,96369.98
2019-03-24T20:44:31.175Z,96371.64
2019-03-24T20:46:57.443Z,96363.41
2019-03-24T20:49:23.711Z,96362.09
2019-03-24T20:51:49.941Z,96358.28
2019-03-24T20:54:16.108Z,96353.56
2019-03-24T20:56:42.351Z,96345.94
2019-03-24T20:59:08.646Z,96349.03
2019-03-24T21:01:35.224Z,96342.46
2019-03-24T21:04:01.463Z,96356.08
2019-03-24T21:06:27.674Z,96344.52
2019-03-24T21:08:53.910Z,96352.91
2019-03-24T21:11:20.498Z,96349.91
2019-03-24T21:13:46.795Z,96349.58
2019-03-24T21:16:13.158Z,96344.11
2019-03-24T21:18:39.486Z,96344.23
2019-03-24T21:21:05.673Z,96346.87
2019-03-24T21:23:31.915Z,96341.23
2019-03-24T21:25:58.047Z,96337.43
2019-03-24T21:28:25.482Z,96335.30
2019-03-24T21:30:51.646Z,96337.09
2019-03-24T21:33:17.959Z,96327.68
2019-03-24T21:35:44.350Z,96333.20
2019-03-24T21:38:10.512Z,96332.36
2019-03-24T21:40:36.809Z,96327.23
2019-03-24T21:43:03.415Z,96324.95
2019-03-24T21:45:29.805Z,96319.69
2019-03-24T21:47:56.512Z,96323.30
2019-03-24T21:50:22.971Z,96319.14
2019-03-24T21:52:49.344Z,96317.12
2019-03-24T21:55:15.431Z,96315.12
2019-03-24T21:57:41.746Z,96314.63
2019-03-24T22:00:08.751Z,96314.28
2019-03-24T22:02:35.198Z,96314.42
2019-03-24T22:05:01.618Z,96315.39
2019-03-24T22:07:28.938Z,96315.86
2019-03-24T22:09:55.090Z,96319.86
2019-03-24T22:12:21.266Z,96315.08
2019-03-24T22:14:47.528Z,96313.45
2019-03-24T22:17:13.753Z,96323.15
2019-03-24T22:19:39.878Z,96315.80
2019-03-24T22:22:06.182Z,96313.05
2019-03-24T22:24:32.428Z,96318.58
2019-03-24T22:26:58.744Z,96314.55
2019-03-24T22:29:24.959Z,96304.89
2019-03-24T22:31:51.080Z,96306.41
2019-03-24T22:34:17.348Z,96308.70
2019-03-24T22:36:43.503Z,96301.16
2019-03-24T22:39:09.676Z,96297.00
2019-03-24T22:41:35.960Z,96295.69
2019-03-24T22:44:02.813Z,96292.34
2019-03-24T22:46:28.977Z,96291.24
2019-03-24T22:48:55.239Z,96286.12
2019-03-24T22:51:21.600Z,96286.12
2019-03-24T22:53:47.881Z,96284.94
2019-03-24T22:56:14.152Z,96286.17
2019-03-24T22:58:40.468Z,96282.50
2019-03-24T23:01:06.777Z,96267.34
2019-03-24T23:03:34.908Z,96270.80
2019-03-24T23:06:01.192Z,96255.52
2019-03-24T23:08:27.439Z,96259.72
2019-03-24T23:10:53.741Z,96257.73
2019-03-24T23:13:19.851Z,96251.63
2019-03-24T23:15:46.083Z,96245.06
2019-03-24T23:18:12.197Z,96238.84
2019-03-24T23:20:38.426Z,96234.22
2019-03-24T23:23:04.590Z,96235.40
2019-03-24T23:25:30.763Z,96229.51
2019-03-24T23:27:57.260Z,96222.60
2019-03-24T23:30:23.438Z,96221.03
2019-03-24T23:32:49.792Z,96223.78
2019-03-24T23:35:16.061Z,96217.69
2019-03-24T23:37:42.247Z,96211.39
2019-03-24T23:40:08.793Z,96219.06
2019-03-24T23:42:35.024Z,96220.97
2019-03-24T23:45:01.134Z,96215.14
2019-03-24T23:47:27.315Z,96219.00
2019-03-24T23:49:53.473Z,96214.95
2019-03-24T23:52:19.672Z,96208.05
2019-03-24T23:54:45.919Z,96206.88
2019-03-24T23:57:12.100Z,96206.40
2019-03-24T23:59:38.331Z,96209.02
